createdAt,value
2018-06-30T00:01:14.385Z,76.39
2018-06-30T00:03:48.189Z,74.72
2018-06-30T00:06:16.514Z,74.48
2018-06-30T00:08:44.849Z,73.89
2018-06-30T00:11:13.890Z,73.77
2018-06-30T00:13:44.620Z,74.93
2018-06-30T00:16:13.853Z,74.56
2018-06-30T00:18:43.568Z,74.27
2018-06-30T00:21:13.997Z,73.45
2018-06-30T00:23:42.658Z,74.41
2018-06-30T00:26:11.073Z,73.00
2018-06-30T00:28:40.120Z,72.80
2018-06-30T00:31:08.464Z,73.08
2018-06-30T00:33:37.381Z,73.18
2018-06-30T00:36:05.789Z,72.05
2018-06-30T00:38:34.118Z,72.84
2018-06-30T00:41:02.443Z,72.63
2018-06-30T00:43:30.765Z,74.53
2018-06-30T00:45:59.105Z,72.55
2018-06-30T00:48:27.460Z,72.81
2018-06-30T00:50:55.778Z,73.18
2018-06-30T00:53:25.101Z,74.54
2018-06-30T00:55:53.470Z,74.53
2018-06-30T00:58:21.809Z,75.33
2018-06-30T01:00:50.184Z,75.29
2018-06-30T01:03:18.500Z,76.23
2018-06-30T01:05:46.822Z,75.06
2018-06-30T01:08:15.145Z,75.45
2018-06-30T01:10:44.841Z,76.49
2018-06-30T01:13:14.609Z,75.39
2018-06-30T01:15:44.191Z,75.52
2018-06-30T01:18:13.621Z,75.39
2018-06-30T01:20:44.094Z,76.28
2018-06-30T01:23:14.726Z,75.65
2018-06-30T01:25:44.189Z,75.91
2018-06-30T01:28:14.265Z,76.24
2018-06-30T01:30:44.117Z,75.20
2018-06-30T01:33:14.501Z,76.15
2018-06-30T01:35:43.875Z,76.03
2018-06-30T01:38:14.080Z,75.88
2018-06-30T01:40:44.261Z,77.44
2018-06-30T01:43:14.943Z,76.89
2018-06-30T01:45:44.209Z,75.81
2018-06-30T01:48:14.698Z,75.90
2018-06-30T01:50:44.029Z,77.91
2018-06-30T01:53:14.045Z,75.84
2018-06-30T01:55:44.014Z,75.88
2018-06-30T01:58:13.601Z,76.73
2018-06-30T02:00:43.435Z,76.03
2018-06-30T02:03:11.777Z,76.64
2018-06-30T02:05:41.235Z,75.57
2018-06-30T02:08:11.098Z,77.01
2018-06-30T02:10:39.915Z,77.71
2018-06-30T02:13:08.235Z,76.97
2018-06-30T02:15:36.601Z,79.01
2018-06-30T02:18:04.925Z,77.28
2018-06-30T02:20:33.296Z,77.04
2018-06-30T02:23:01.613Z,77.64
2018-06-30T02:25:29.994Z,79.53
2018-06-30T02:27:58.308Z,78.03
2018-06-30T02:30:26.617Z,79.06
2018-06-30T02:32:54.981Z,77.36
2018-06-30T02:35:23.330Z,77.58
2018-06-30T02:37:51.667Z,78.58
2018-06-30T02:40:20.049Z,78.92
2018-06-30T02:42:48.387Z,79.19
2018-06-30T02:45:16.706Z,79.30
2018-06-30T02:47:45.026Z,78.38
2018-06-30T02:50:14.341Z,77.83
2018-06-30T02:52:42.737Z,77.94
2018-06-30T02:55:13.265Z,78.80
2018-06-30T02:57:43.187Z,78.69
2018-06-30T03:00:12.870Z,79.15
2018-06-30T03:02:43.013Z,79.14
2018-06-30T03:05:13.179Z,79.00
2018-06-30T03:07:42.217Z,78.35
2018-06-30T03:10:11.137Z,77.93
2018-06-30T03:12:40.148Z,76.83
2018-06-30T03:15:08.521Z,77.56
2018-06-30T03:17:36.850Z,78.83
2018-06-30T03:20:05.464Z,77.89
2018-06-30T03:22:33.793Z,77.59
2018-06-30T03:25:02.209Z,80.16
2018-06-30T03:27:30.574Z,78.88
2018-06-30T03:29:58.901Z,77.90
2018-06-30T03:32:27.221Z,77.96
2018-06-30T03:34:55.602Z,80.00
2018-06-30T03:37:23.923Z,79.45
2018-06-30T03:39:52.241Z,80.56
2018-06-30T03:42:20.570Z,80.78
2018-06-30T03:44:48.906Z,79.56
2018-06-30T03:47:17.362Z,79.81
2018-06-30T03:49:45.689Z,80.21
2018-06-30T03:52:15.354Z,77.81
2018-06-30T03:54:44.895Z,78.21
2018-06-30T03:57:14.569Z,78.01
2018-06-30T03:59:43.967Z,79.30
2018-06-30T04:02:13.272Z,77.98
2018-06-30T04:04:44.146Z,77.43
2018-06-30T04:07:13.619Z,79.45
2018-06-30T04:09:42.646Z,76.60
2018-06-30T04:12:13.053Z,75.42
2018-06-30T04:14:43.177Z,76.36
2018-06-30T04:17:13.146Z,76.85
2018-06-30T04:19:43.306Z,76.31
2018-06-30T04:22:14.131Z,77.61
2018-06-30T04:24:43.273Z,73.63
2018-06-30T04:27:12.609Z,73.90
2018-06-30T04:29:41.613Z,76.01
2018-06-30T04:32:10.602Z,75.19
2018-06-30T04:34:38.987Z,75.37
2018-06-30T04:37:07.365Z,74.25
2018-06-30T04:39:35.686Z,73.20
2018-06-30T04:42:04.034Z,74.13
2018-06-30T04:44:32.354Z,73.56
2018-06-30T04:47:00.711Z,73.05
2018-06-30T04:49:29.029Z,72.89
2018-06-30T04:51:57.354Z,71.39
2018-06-30T04:54:25.750Z,71.27
2018-06-30T04:56:54.069Z,72.66
2018-06-30T04:59:22.443Z,69.20
2018-06-30T05:01:50.809Z,70.23
2018-06-30T05:04:19.605Z,69.52
2018-06-30T05:06:47.923Z,70.37
2018-06-30T05:09:16.317Z,69.57
2018-06-30T05:11:44.698Z,72.13
2018-06-30T05:14:13.830Z,69.48
2018-06-30T05:16:43.598Z,68.80
2018-06-30T05:19:12.973Z,70.24
2018-06-30T05:21:43.057Z,69.74
2018-06-30T05:24:13.367Z,68.31
2018-06-30T05:26:42.694Z,69.43
2018-06-30T05:29:13.261Z,68.31
2018-06-30T05:31:43.681Z,68.97
2018-06-30T05:34:13.692Z,68.70
2018-06-30T05:36:43.873Z,68.68
2018-06-30T05:39:16.601Z,68.00
2018-06-30T05:41:45.440Z,67.78
2018-06-30T05:44:15.172Z,67.77
2018-06-30T05:46:44.734Z,65.86
2018-06-30T05:49:14.025Z,64.44
2018-06-30T05:51:44.286Z,64.77
2018-06-30T05:54:14.351Z,65.43
2018-06-30T05:56:44.425Z,64.92
2018-06-30T05:59:14.068Z,65.92
2018-06-30T06:01:42.905Z,62.71
2018-06-30T06:04:11.280Z,62.93
2018-06-30T06:06:39.723Z,63.17
2018-06-30T06:09:09.409Z,61.03
2018-06-30T06:11:37.803Z,61.64
2018-06-30T06:14:06.294Z,60.07
2018-06-30T06:16:34.638Z,59.69
2018-06-30T06:19:03.175Z,60.98
2018-06-30T06:21:31.577Z,60.29
2018-06-30T06:23:59.997Z,58.34
2018-06-30T06:26:28.348Z,58.56
2018-06-30T06:28:56.675Z,56.58
2018-06-30T06:31:25.277Z,56.70
2018-06-30T06:33:53.629Z,55.36
2018-06-30T06:36:22.346Z,54.59
2018-06-30T06:39:06.645Z,56.05
2018-06-30T06:41:35.311Z,54.11
2018-06-30T06:44:04.636Z,53.92
2018-06-30T06:46:32.986Z,54.50
2018-06-30T06:49:01.316Z,54.70
2018-06-30T06:51:29.663Z,54.17
2018-06-30T06:53:57.986Z,52.45
2018-06-30T06:56:26.334Z,50.95
2018-06-30T06:58:54.685Z,52.90
2018-06-30T07:01:23.055Z,50.42
2018-06-30T07:03:51.382Z,51.43
2018-06-30T07:06:19.725Z,51.15
2018-06-30T07:08:48.054Z,49.62
2018-06-30T07:11:16.377Z,49.57
2018-06-30T07:13:44.750Z,48.78
2018-06-30T07:16:14.229Z,48.54
2018-06-30T07:18:43.206Z,47.21
2018-06-30T07:21:13.230Z,47.97
2018-06-30T07:23:43.307Z,46.19
2018-06-30T07:26:13.359Z,45.83
2018-06-30T07:28:42.842Z,45.86
2018-06-30T07:31:12.639Z,42.61
2018-06-30T07:33:43.287Z,45.45
2018-06-30T07:36:14.045Z,45.73
2018-06-30T07:38:44.056Z,45.96
2018-06-30T07:41:12.909Z,46.90
2018-06-30T07:43:43.821Z,44.31
2018-06-30T07:46:12.809Z,42.66
2018-06-30T07:48:43.109Z,43.63
2018-06-30T07:51:13.319Z,43.32
2018-06-30T07:53:43.406Z,42.50
2018-06-30T07:56:12.902Z,43.20
2018-06-30T07:58:43.525Z,42.66
2018-06-30T08:01:13.893Z,42.75
2018-06-30T08:03:44.366Z,41.10
2018-06-30T08:06:15.026Z,42.60
2018-06-30T08:08:44.266Z,42.00
2018-06-30T08:11:12.657Z,42.20
2018-06-30T08:13:42.034Z,45.45
2018-06-30T08:16:10.440Z,41.46
2018-06-30T08:18:38.765Z,41.69
2018-06-30T08:21:07.130Z,40.54
2018-06-30T08:23:35.514Z,40.76
2018-06-30T08:26:03.957Z,40.54
2018-06-30T08:28:32.293Z,41.80
2018-06-30T08:31:00.689Z,41.53
2018-06-30T08:33:29.046Z,42.23
2018-06-30T08:35:57.525Z,42.35
2018-06-30T08:38:26.040Z,41.27
2018-06-30T08:40:54.554Z,42.27
2018-06-30T08:43:22.883Z,40.14
2018-06-30T08:45:51.209Z,39.69
2018-06-30T08:48:19.542Z,38.27
2018-06-30T08:50:47.865Z,38.67
2018-06-30T08:53:17.085Z,40.64
2018-06-30T08:55:45.507Z,39.66
2018-06-30T08:58:14.261Z,40.52
2018-06-30T09:00:44.264Z,39.34
2018-06-30T09:03:14.477Z,40.78
2018-06-30T09:05:44.006Z,41.32
2018-06-30T09:08:13.905Z,39.77
2018-06-30T09:10:44.336Z,39.66
2018-06-30T09:13:12.749Z,40.16
2018-06-30T09:15:42.101Z,39.82
2018-06-30T09:18:10.455Z,38.24
2018-06-30T09:20:38.778Z,37.70
2018-06-30T09:23:07.282Z,38.78
2018-06-30T09:25:36.645Z,37.48
2018-06-30T09:28:05.097Z,39.87
2018-06-30T09:30:33.425Z,38.90
2018-06-30T09:33:01.774Z,36.52
2018-06-30T09:35:30.103Z,39.41
2018-06-30T09:37:58.615Z,40.83
2018-06-30T09:40:26.918Z,38.42
2018-06-30T09:42:55.288Z,41.79
2018-06-30T09:45:23.647Z,39.73
2018-06-30T09:47:51.973Z,39.78
2018-06-30T09:50:20.317Z,39.33
2018-06-30T09:52:49.663Z,37.29
2018-06-30T09:55:17.989Z,39.92
2018-06-30T09:57:46.350Z,39.63
2018-06-30T10:00:21.193Z,37.23
2018-06-30T10:02:55.840Z,39.52
2018-06-30T10:05:25.725Z,39.56
2018-06-30T10:07:55.325Z,40.41
2018-06-30T10:10:25.274Z,39.83
2018-06-30T10:12:55.249Z,41.43
2018-06-30T10:15:25.136Z,39.57
2018-06-30T10:17:55.745Z,40.15
2018-06-30T10:20:31.706Z,37.21
2018-06-30T10:23:06.489Z,36.39
2018-06-30T10:25:40.124Z,37.75
2018-06-30T10:28:14.072Z,37.73
2018-06-30T10:30:44.232Z,40.09
2018-06-30T10:33:14.790Z,40.06
2018-06-30T10:35:43.785Z,41.34
2018-06-30T10:38:13.306Z,39.90
2018-06-30T10:40:43.381Z,38.15
2018-06-30T10:43:13.333Z,38.91
2018-06-30T10:45:43.290Z,40.02
2018-06-30T10:48:13.349Z,36.39
2018-06-30T10:50:42.896Z,35.60
2018-06-30T10:53:12.625Z,36.38
2018-06-30T10:55:42.410Z,36.74
2018-06-30T10:58:12.841Z,35.69
2018-06-30T11:00:43.626Z,35.09
2018-06-30T11:03:13.629Z,37.12
2018-06-30T11:05:43.726Z,36.95
2018-06-30T11:08:13.314Z,36.75
2018-06-30T11:10:43.395Z,37.96
2018-06-30T11:13:12.801Z,37.77
2018-06-30T11:15:42.546Z,36.89
2018-06-30T11:18:12.116Z,33.46
2018-06-30T11:20:40.517Z,35.92
2018-06-30T11:23:08.866Z,34.59
2018-06-30T11:25:37.189Z,35.50
2018-06-30T11:28:05.643Z,35.70
2018-06-30T11:30:33.957Z,37.03
2018-06-30T11:33:02.273Z,36.53
2018-06-30T11:35:30.597Z,36.98
2018-06-30T11:37:58.922Z,39.21
2018-06-30T11:40:27.290Z,36.56
2018-06-30T11:42:56.629Z,39.34
2018-06-30T11:45:24.972Z,39.64
2018-06-30T11:47:53.294Z,35.81
2018-06-30T11:50:21.659Z,34.71
2018-06-30T11:52:49.985Z,34.57
2018-06-30T11:55:18.310Z,33.89
2018-06-30T11:57:46.662Z,36.50
2018-06-30T12:00:14.981Z,36.79
2018-06-30T12:02:44.405Z,36.52
2018-06-30T12:05:12.765Z,38.77
2018-06-30T12:07:42.213Z,35.38
2018-06-30T12:10:12.516Z,36.81
2018-06-30T12:12:42.208Z,37.37
2018-06-30T12:15:13.011Z,36.53
2018-06-30T12:17:43.534Z,33.78
2018-06-30T12:20:13.186Z,32.93
2018-06-30T12:22:42.518Z,34.77
2018-06-30T12:25:11.590Z,35.31
2018-06-30T12:27:40.068Z,37.39
2018-06-30T12:30:08.734Z,36.67
2018-06-30T12:32:37.054Z,37.98
2018-06-30T12:35:05.421Z,36.45
2018-06-30T12:37:33.738Z,36.02
2018-06-30T12:40:02.065Z,34.63
2018-06-30T12:42:30.378Z,35.76
2018-06-30T12:44:58.737Z,32.40
2018-06-30T12:47:27.060Z,34.30
2018-06-30T12:49:55.445Z,34.57
2018-06-30T12:52:23.776Z,34.01
2018-06-30T12:54:52.128Z,33.09
2018-06-30T12:57:20.465Z,35.28
2018-06-30T12:59:48.781Z,35.80
2018-06-30T13:02:17.111Z,34.27
2018-06-30T13:04:45.438Z,34.83
2018-06-30T13:07:14.334Z,32.94
2018-06-30T13:09:44.358Z,32.71
2018-06-30T13:12:14.249Z,31.53
2018-06-30T13:14:44.472Z,32.87
2018-06-30T13:17:12.866Z,33.85
2018-06-30T13:19:41.666Z,36.97
2018-06-30T13:22:10.162Z,36.40
2018-06-30T13:24:38.870Z,35.58
2018-06-30T13:27:07.197Z,37.27
2018-06-30T13:29:35.567Z,35.71
2018-06-30T13:32:03.929Z,36.99
2018-06-30T13:34:32.297Z,36.65
2018-06-30T13:37:00.650Z,35.64
2018-06-30T13:39:28.977Z,35.44
2018-06-30T13:41:57.303Z,36.05
2018-06-30T13:44:25.642Z,36.79
2018-06-30T13:46:53.986Z,32.68
2018-06-30T13:49:22.316Z,33.33
2018-06-30T13:51:50.650Z,31.94
2018-06-30T13:54:19.026Z,31.42
2018-06-30T13:56:47.359Z,31.21
2018-06-30T13:59:15.689Z,31.70
2018-06-30T14:01:44.949Z,33.98
2018-06-30T14:04:15.063Z,34.57
2018-06-30T14:06:43.979Z,35.01
2018-06-30T14:09:15.341Z,35.55
2018-06-30T14:11:44.781Z,34.96
2018-06-30T14:14:14.471Z,32.77
2018-06-30T14:16:45.294Z,33.14
2018-06-30T14:19:14.629Z,33.10
2018-06-30T14:21:45.119Z,34.79
2018-06-30T14:24:14.094Z,34.69
2018-06-30T14:26:44.356Z,37.44
2018-06-30T14:29:15.033Z,35.87
2018-06-30T14:31:44.502Z,36.48
2018-06-30T14:34:13.926Z,37.02
2018-06-30T14:36:43.643Z,37.25
2018-06-30T14:39:13.473Z,37.47
2018-06-30T14:41:43.715Z,34.47
2018-06-30T14:44:14.213Z,33.79
2018-06-30T14:46:44.001Z,31.24
2018-06-30T14:49:13.673Z,29.41
2018-06-30T14:51:44.154Z,27.46
2018-06-30T14:54:14.867Z,27.02
2018-06-30T14:56:44.487Z,28.79
2018-06-30T14:59:13.903Z,32.99
2018-06-30T15:01:43.686Z,34.37
2018-06-30T15:04:14.281Z,34.54
2018-06-30T15:06:44.534Z,33.24
2018-06-30T15:09:14.337Z,30.16
2018-06-30T15:11:45.642Z,30.06
2018-06-30T15:14:15.548Z,31.04
2018-06-30T15:16:45.605Z,29.22
2018-06-30T15:19:15.375Z,26.64
2018-06-30T15:21:44.799Z,25.83
2018-06-30T15:24:14.293Z,25.98
2018-06-30T15:26:44.718Z,28.10
2018-06-30T15:29:15.334Z,25.48
2018-06-30T15:31:44.806Z,25.30
2018-06-30T15:34:14.538Z,28.34
2018-06-30T15:36:43.874Z,24.64
2018-06-30T15:39:13.907Z,26.91
2018-06-30T15:41:43.473Z,28.51
2018-06-30T15:44:12.892Z,28.38
2018-06-30T15:46:41.696Z,29.52
2018-06-30T15:49:10.088Z,29.63
2018-06-30T15:51:38.446Z,31.22
2018-06-30T15:54:06.822Z,31.74
2018-06-30T15:56:36.113Z,32.13
2018-06-30T15:59:04.616Z,32.54
2018-06-30T16:01:33.038Z,31.79
2018-06-30T16:04:01.421Z,31.59
2018-06-30T16:06:30.856Z,31.64
2018-06-30T16:08:59.197Z,33.92
2018-06-30T16:11:27.569Z,31.93
2018-06-30T16:13:55.902Z,32.52
2018-06-30T16:16:24.263Z,32.96
2018-06-30T16:18:52.651Z,32.51
2018-06-30T16:21:20.981Z,34.31
2018-06-30T16:23:49.361Z,35.20
2018-06-30T16:26:17.781Z,36.96
2018-06-30T16:28:46.158Z,36.57
2018-06-30T16:31:16.007Z,36.28
2018-06-30T16:33:44.831Z,38.95
2018-06-30T16:36:14.846Z,41.01
2018-06-30T16:38:44.776Z,37.38
2018-06-30T16:41:14.819Z,38.34
2018-06-30T16:43:44.989Z,36.17
2018-06-30T16:46:14.341Z,37.94
2018-06-30T16:48:44.566Z,37.64
2018-06-30T16:51:14.049Z,38.40
2018-06-30T16:53:44.093Z,37.19
2018-06-30T16:56:13.993Z,37.52
2018-06-30T16:58:43.272Z,35.04
2018-06-30T17:01:12.694Z,39.65
2018-06-30T17:03:41.611Z,37.44
2018-06-30T17:06:10.656Z,35.13
2018-06-30T17:08:38.990Z,36.92
2018-06-30T17:11:07.404Z,39.33
2018-06-30T17:13:35.764Z,37.81
2018-06-30T17:16:04.270Z,37.99
2018-06-30T17:18:32.685Z,44.48
2018-06-30T17:21:01.011Z,41.96
2018-06-30T17:23:29.393Z,39.62
2018-06-30T17:25:57.776Z,41.56
2018-06-30T17:28:26.089Z,41.01
2018-06-30T17:30:54.437Z,39.54
2018-06-30T17:33:22.757Z,38.48
2018-06-30T17:35:51.350Z,38.87
2018-06-30T17:38:19.733Z,39.64
2018-06-30T17:40:48.085Z,40.47
2018-06-30T17:43:16.422Z,39.57
2018-06-30T17:45:44.757Z,40.23
2018-06-30T17:48:14.633Z,39.82
2018-06-30T17:50:44.217Z,39.62
2018-06-30T17:53:14.289Z,39.17
2018-06-30T17:55:44.009Z,39.30
2018-06-30T17:58:14.046Z,38.02
2018-06-30T18:00:44.002Z,42.14
2018-06-30T18:03:13.950Z,38.25
2018-06-30T18:05:43.290Z,39.15
2018-06-30T18:08:13.125Z,37.92
2018-06-30T18:10:43.081Z,40.18
2018-06-30T18:13:13.071Z,39.34
2018-06-30T18:15:44.141Z,41.44
2018-06-30T18:18:14.021Z,39.67
2018-06-30T18:20:43.365Z,41.43
2018-06-30T18:23:11.749Z,41.79
2018-06-30T18:25:40.776Z,42.05
2018-06-30T18:28:09.113Z,41.98
2018-06-30T18:30:37.493Z,44.04
2018-06-30T18:33:05.837Z,44.10
2018-06-30T18:35:34.399Z,45.06
2018-06-30T18:38:02.780Z,45.98
2018-06-30T18:40:31.131Z,43.81
2018-06-30T18:42:59.883Z,47.32
2018-06-30T18:45:28.217Z,46.79
2018-06-30T18:47:56.553Z,44.49
2018-06-30T18:50:24.881Z,45.72
2018-06-30T18:52:53.265Z,47.74
2018-06-30T18:55:21.627Z,45.96
2018-06-30T18:57:49.984Z,46.31
2018-06-30T19:00:18.451Z,47.32
2018-06-30T19:02:46.821Z,47.92
2018-06-30T19:05:15.153Z,46.96
2018-06-30T19:07:44.080Z,48.55
2018-06-30T19:10:13.301Z,47.25
2018-06-30T19:12:42.689Z,47.98
2018-06-30T19:15:11.746Z,51.43
2018-06-30T19:17:42.925Z,49.30
2018-06-30T19:20:13.316Z,49.97
2018-06-30T19:22:42.803Z,51.50
2018-06-30T19:25:11.713Z,50.33
2018-06-30T19:27:40.227Z,51.89
2018-06-30T19:30:08.598Z,51.49
2018-06-30T19:32:36.946Z,51.77
2018-06-30T19:35:05.327Z,51.68
2018-06-30T19:37:34.725Z,50.76
2018-06-30T19:40:03.140Z,52.12
2018-06-30T19:42:31.591Z,54.68
2018-06-30T19:44:59.931Z,52.91
2018-06-30T19:47:28.530Z,55.22
2018-06-30T19:49:56.986Z,53.06
2018-06-30T19:52:25.322Z,52.66
2018-06-30T19:54:53.779Z,52.75
2018-06-30T19:57:22.213Z,51.61
2018-06-30T19:59:50.548Z,53.75
2018-06-30T20:02:18.898Z,54.69
2018-06-30T20:04:47.251Z,53.26
2018-06-30T20:07:15.783Z,55.81
2018-06-30T20:09:45.226Z,53.08
2018-06-30T20:12:14.597Z,54.04
2018-06-30T20:14:44.342Z,54.29
2018-06-30T20:17:14.482Z,55.60
2018-06-30T20:19:45.265Z,53.77
2018-06-30T20:22:14.904Z,54.61
2018-06-30T20:24:44.709Z,52.60
2018-06-30T20:27:14.748Z,54.63
2018-06-30T20:29:44.590Z,52.27
2018-06-30T20:32:14.490Z,52.34
2018-06-30T20:34:44.713Z,53.20
2018-06-30T20:37:14.373Z,52.24
2018-06-30T20:39:45.196Z,50.36
2018-06-30T20:42:14.672Z,50.11
2018-06-30T20:44:44.719Z,50.48
2018-06-30T20:47:14.069Z,51.69
2018-06-30T20:49:45.053Z,53.67
2018-06-30T20:52:15.074Z,50.80
2018-06-30T20:54:44.722Z,52.44
2018-06-30T20:57:13.889Z,53.07
2018-06-30T20:59:44.983Z,54.41
2018-06-30T21:02:15.469Z,51.21
2018-06-30T21:04:44.975Z,54.36
2018-06-30T21:07:14.349Z,53.23
2018-06-30T21:09:45.345Z,52.94
2018-06-30T21:12:15.213Z,54.91
2018-06-30T21:14:44.389Z,54.08
2018-06-30T21:17:14.641Z,54.55
2018-06-30T21:19:44.597Z,53.87
2018-06-30T21:22:14.083Z,55.47
2018-06-30T21:24:43.533Z,55.01
2018-06-30T21:27:13.075Z,55.30
2018-06-30T21:29:43.288Z,56.20
2018-06-30T21:32:12.690Z,55.26
2018-06-30T21:34:43.625Z,56.43
2018-06-30T21:37:12.754Z,56.56
2018-06-30T21:39:41.708Z,57.37
2018-06-30T21:42:10.037Z,56.19
2018-06-30T21:44:39.355Z,59.18
2018-06-30T21:47:07.993Z,56.97
2018-06-30T21:49:36.356Z,58.43
2018-06-30T21:52:04.734Z,58.61
2018-06-30T21:54:33.062Z,58.15
2018-06-30T21:57:01.449Z,59.31
2018-06-30T21:59:29.845Z,58.88
2018-06-30T22:01:58.180Z,58.74
2018-06-30T22:04:26.510Z,59.38
2018-06-30T22:06:54.962Z,57.23
2018-06-30T22:09:24.145Z,58.07
2018-06-30T22:11:52.560Z,57.25
2018-06-30T22:14:20.943Z,56.26
2018-06-30T22:16:49.282Z,58.70
2018-06-30T22:19:17.608Z,59.64
2018-06-30T22:21:45.984Z,58.61
2018-06-30T22:24:15.069Z,57.08
2018-06-30T22:26:44.514Z,57.33
2018-06-30T22:29:14.307Z,55.50
2018-06-30T22:31:43.712Z,58.50
2018-06-30T22:34:12.757Z,57.95
2018-06-30T22:36:42.281Z,57.55
2018-06-30T22:39:12.781Z,56.41
2018-06-30T22:41:42.457Z,58.17
2018-06-30T22:44:11.693Z,56.20
2018-06-30T22:46:40.026Z,59.98
2018-06-30T22:49:08.357Z,60.31
2018-06-30T22:51:36.808Z,58.66
2018-06-30T22:54:05.141Z,58.86
2018-06-30T22:56:33.499Z,58.59
2018-06-30T22:59:01.841Z,59.34
2018-06-30T23:01:30.206Z,60.21
2018-06-30T23:03:58.533Z,59.51
2018-06-30T23:06:26.907Z,59.94
2018-06-30T23:08:55.228Z,60.97
2018-06-30T23:11:24.404Z,60.82
2018-06-30T23:13:53.037Z,60.04
2018-06-30T23:16:27.897Z,59.52
2018-06-30T23:18:56.219Z,60.84
2018-06-30T23:21:24.588Z,61.46
2018-06-30T23:23:52.925Z,60.24
2018-06-30T23:26:21.287Z,59.57
2018-06-30T23:28:49.653Z,59.25
2018-06-30T23:31:17.973Z,61.78
2018-06-30T23:33:46.350Z,60.85
2018-06-30T23:36:15.909Z,59.75
2018-06-30T23:38:45.566Z,61.71
2018-06-30T23:41:14.670Z,61.20
2018-06-30T23:43:44.569Z,61.83
2018-06-30T23:46:14.436Z,63.67
2018-06-30T23:48:44.193Z,61.88
2018-06-30T23:51:14.651Z,61.71
2018-06-30T23:53:44.354Z,64.02
2018-06-30T23:56:14.710Z,61.79
2018-06-30T23:58:44.185Z,63.75
